Ankeny, Iowa
Current Conditions -  °F | °C
As of 11:35 AM on Friday 24 Oct 2014 (Local Time) from KIKV Reporting Station
Haze Haze  
Wind Chill: 61°   Ceiling: 600
Heat Index: 61°   Visibility: 4mi
Dew Point: 61°   Wind: 10mph
Humidity: 100%   Direction: 180°S
Pressure: 29.95"   Gusts: 17mph
Location:  41.73°N, 93.6°W
Report Text: KIKV 241635Z AUTO 18009G15KT 4SM BR OVC006 16/16 A2995 RMK AO2
Loading
Personal Weather Stations






























Interactive Weather Map
Tropical Storm Tracking
New forecast layout! Learn more

10-Day Weather Forecast

Advertisements
Track Severe Weather on mobile